createdAt,value
2022-12-06T00:01:35.129Z,35.10
2022-12-06T00:04:07.481Z,38.90
2022-12-06T00:06:39.517Z,34.73
2022-12-06T00:09:07.938Z,35.60
2022-12-06T00:11:37.421Z,35.17
2022-12-06T00:14:07.615Z,34.30
2022-12-06T00:16:37.896Z,36.10
2022-12-06T00:19:06.724Z,35.63
2022-12-06T00:21:38.999Z,35.27
2022-12-06T00:24:09.453Z,35.33
2022-12-06T00:26:38.897Z,34.60
2022-12-06T00:29:07.993Z,34.23
2022-12-06T00:31:38.104Z,33.93
2022-12-06T00:34:08.320Z,35.63
2022-12-06T00:36:38.626Z,35.17
2022-12-06T00:39:13.225Z,35.67
2022-12-06T00:41:41.634Z,35.40
2022-12-06T00:44:10.530Z,36.30
2022-12-06T00:46:40.886Z,36.40
2022-12-06T00:49:12.295Z,34.37
2022-12-06T00:51:41.039Z,35.50
2022-12-06T00:54:14.334Z,35.33
2022-12-06T00:56:42.768Z,35.30
2022-12-06T00:59:11.841Z,33.83
2022-12-06T01:01:43.480Z,35.50
2022-12-06T01:04:12.146Z,33.67
2022-12-06T01:06:43.769Z,32.90
2022-12-06T01:09:13.137Z,33.67
2022-12-06T01:11:42.355Z,33.57
2022-12-06T01:14:13.020Z,33.93
2022-12-06T01:16:42.615Z,33.83
2022-12-06T01:19:13.407Z,33.47
2022-12-06T01:21:41.920Z,33.53
2022-12-06T01:24:12.563Z,33.97
2022-12-06T01:26:40.717Z,34.33
2022-12-06T01:29:08.687Z,34.20
2022-12-06T01:31:38.989Z,34.37
2022-12-06T01:34:14.930Z,32.93
2022-12-06T01:36:42.986Z,33.17
2022-12-06T01:39:12.648Z,33.00
2022-12-06T01:41:41.242Z,32.47
2022-12-06T01:44:44.423Z,34.70
2022-12-06T01:47:16.185Z,32.50
2022-12-06T01:49:47.052Z,33.67
2022-12-06T01:52:16.886Z,33.83
2022-12-06T01:54:45.722Z,32.33
2022-12-06T01:57:16.250Z,32.90
2022-12-06T01:59:46.343Z,32.77
2022-12-06T02:02:15.101Z,34.33
2022-12-06T02:04:45.305Z,33.03
2022-12-06T02:07:16.980Z,32.87
2022-12-06T02:09:45.949Z,33.43
2022-12-06T02:12:15.816Z,32.33
2022-12-06T02:14:53.108Z,32.17
2022-12-06T02:17:31.223Z,32.70
2022-12-06T02:20:11.606Z,33.43
2022-12-06T02:23:13.071Z,32.63
2022-12-06T02:26:05.468Z,33.00
2022-12-06T02:29:03.392Z,32.93
2022-12-06T02:31:38.675Z,31.97
2022-12-06T02:34:14.368Z,32.00
2022-12-06T02:36:49.055Z,32.10
2022-12-06T02:39:25.580Z,32.03
2022-12-06T02:41:59.140Z,31.83
2022-12-06T02:44:32.770Z,32.20
2022-12-06T02:47:04.980Z,32.93
2022-12-06T02:49:37.183Z,33.10
2022-12-06T02:52:06.151Z,32.97
2022-12-06T02:54:34.803Z,32.20
2022-12-06T02:57:05.496Z,33.87
2022-12-06T02:59:33.451Z,32.60
2022-12-06T03:02:05.322Z,32.63
2022-12-06T03:04:49.892Z,32.87
2022-12-06T03:07:29.359Z,32.40
2022-12-06T03:10:10.026Z,33.70
2022-12-06T03:12:44.986Z,33.93
2022-12-06T03:15:21.369Z,33.47
2022-12-06T03:17:54.792Z,32.07
2022-12-06T03:20:29.049Z,31.90
2022-12-06T03:23:03.698Z,33.57
2022-12-06T03:25:36.035Z,33.93
2022-12-06T03:28:06.358Z,32.90
2022-12-06T03:30:36.150Z,33.97
2022-12-06T03:33:06.452Z,33.77
2022-12-06T03:35:37.175Z,33.97
2022-12-06T03:38:11.111Z,34.40
2022-12-06T03:40:42.671Z,32.63
2022-12-06T03:43:13.909Z,33.30
2022-12-06T03:45:47.642Z,33.40
2022-12-06T03:48:23.054Z,33.60
2022-12-06T03:50:58.689Z,33.17
2022-12-06T03:53:27.406Z,33.67
2022-12-06T03:55:57.468Z,34.70
2022-12-06T03:58:25.591Z,33.50
2022-12-06T04:00:53.879Z,33.40
2022-12-06T04:03:25.670Z,32.97
2022-12-06T04:05:53.917Z,33.83
2022-12-06T04:08:22.087Z,32.00
2022-12-06T04:10:51.361Z,33.37
2022-12-06T04:13:20.068Z,33.07
2022-12-06T04:15:48.567Z,33.47
2022-12-06T04:18:16.404Z,32.90
2022-12-06T04:21:06.373Z,33.37
2022-12-06T04:23:36.499Z,33.30
2022-12-06T04:26:05.470Z,33.97
2022-12-06T04:28:51.072Z,32.33
2022-12-06T04:31:36.998Z,33.10
2022-12-06T04:34:22.856Z,32.47
2022-12-06T04:37:14.192Z,32.43
2022-12-06T04:39:42.372Z,32.37
2022-12-06T04:42:27.901Z,32.23
2022-12-06T04:44:55.991Z,33.17
2022-12-06T04:47:24.432Z,32.70
2022-12-06T04:49:53.703Z,32.97
2022-12-06T04:52:24.393Z,32.47
2022-12-06T04:54:52.542Z,31.77
2022-12-06T04:57:20.683Z,32.43
2022-12-06T04:59:49.412Z,31.53
2022-12-06T05:02:17.745Z,31.80
2022-12-06T05:04:46.059Z,32.00
2022-12-06T05:07:14.640Z,33.40
2022-12-06T05:09:44.362Z,32.43
2022-12-06T05:12:12.818Z,32.67
2022-12-06T05:14:40.999Z,32.20
2022-12-06T05:17:09.176Z,32.87
2022-12-06T05:19:37.326Z,31.27
2022-12-06T05:22:06.084Z,31.40
2022-12-06T05:24:34.650Z,31.87
2022-12-06T05:27:05.164Z,33.90
2022-12-06T05:29:34.767Z,32.87
2022-12-06T05:32:03.419Z,31.63
2022-12-06T05:34:31.719Z,32.23
2022-12-06T05:36:59.971Z,32.97
2022-12-06T05:39:29.317Z,33.13
2022-12-06T05:42:02.873Z,32.80
2022-12-06T05:44:32.635Z,32.67
2022-12-06T05:47:03.817Z,32.03
2022-12-06T05:49:32.063Z,32.30
2022-12-06T05:52:03.996Z,32.07
2022-12-06T05:54:32.655Z,32.13
2022-12-06T05:57:01.335Z,31.30
2022-12-06T05:59:30.318Z,31.93
2022-12-06T06:02:00.303Z,31.90
2022-12-06T06:04:28.762Z,31.47
2022-12-06T06:06:57.222Z,30.90
2022-12-06T06:09:27.228Z,31.53
2022-12-06T06:11:57.700Z,32.53
2022-12-06T06:14:29.106Z,30.97
2022-12-06T06:17:00.392Z,30.83
2022-12-06T06:19:28.604Z,31.17
2022-12-06T06:21:59.464Z,31.00
2022-12-06T06:24:27.507Z,31.30
2022-12-06T06:26:56.072Z,30.63
2022-12-06T06:29:25.814Z,30.17
2022-12-06T06:31:55.471Z,29.97
2022-12-06T06:34:28.450Z,30.37
2022-12-06T06:37:00.500Z,29.90
2022-12-06T06:39:28.781Z,30.10
2022-12-06T06:41:57.266Z,29.67
2022-12-06T06:44:27.869Z,28.20
2022-12-06T06:46:57.117Z,30.10
2022-12-06T06:49:26.963Z,29.50
2022-12-06T06:51:58.173Z,29.17
2022-12-06T06:54:28.110Z,29.80
2022-12-06T06:56:59.832Z,30.00
2022-12-06T06:59:27.934Z,28.97
2022-12-06T07:01:56.123Z,30.23
2022-12-06T07:04:24.434Z,31.37
2022-12-06T07:06:56.421Z,29.67
2022-12-06T07:09:30.529Z,29.27
2022-12-06T07:11:59.079Z,29.47
2022-12-06T07:14:30.524Z,30.07
2022-12-06T07:16:58.609Z,30.80
2022-12-06T07:19:31.930Z,29.60
2022-12-06T07:22:10.679Z,29.17
2022-12-06T07:24:42.897Z,30.20
2022-12-06T07:27:15.590Z,30.57
2022-12-06T07:29:49.868Z,29.13
2022-12-06T07:32:17.902Z,29.83
2022-12-06T07:34:46.175Z,30.23
2022-12-06T07:37:19.066Z,29.77
2022-12-06T07:39:48.627Z,30.27
2022-12-06T07:42:34.061Z,30.17
2022-12-06T07:45:07.350Z,30.53
2022-12-06T07:47:36.500Z,31.40
2022-12-06T07:50:06.933Z,29.77
2022-12-06T07:52:37.695Z,28.93
2022-12-06T07:55:08.378Z,31.10
2022-12-06T07:57:43.003Z,28.00
2022-12-06T08:00:18.587Z,29.53
2022-12-06T08:02:46.992Z,29.27
2022-12-06T08:05:15.143Z,31.00
2022-12-06T08:07:44.859Z,29.87
2022-12-06T08:10:13.040Z,30.03
2022-12-06T08:12:41.928Z,29.87
2022-12-06T08:15:13.294Z,29.87
2022-12-06T08:17:42.956Z,29.30
2022-12-06T08:20:12.369Z,29.20
2022-12-06T08:22:40.442Z,28.93
2022-12-06T08:25:11.513Z,29.70
2022-12-06T08:27:39.657Z,29.03
2022-12-06T08:30:09.201Z,28.67
2022-12-06T08:32:37.293Z,27.97
2022-12-06T08:35:05.668Z,28.37
2022-12-06T08:37:35.796Z,28.70
2022-12-06T08:40:06.485Z,28.70
2022-12-06T08:42:36.086Z,28.57
2022-12-06T08:45:04.428Z,27.77
2022-12-06T08:47:32.574Z,28.90
2022-12-06T08:50:01.580Z,29.33
2022-12-06T08:52:29.897Z,29.70
2022-12-06T08:54:58.538Z,29.60
2022-12-06T08:57:27.067Z,29.97
2022-12-06T08:59:58.689Z,29.97
2022-12-06T09:02:27.591Z,28.63
2022-12-06T09:04:57.483Z,27.97
2022-12-06T09:07:26.364Z,29.53
2022-12-06T09:09:54.870Z,30.60
2022-12-06T09:12:22.987Z,28.57
2022-12-06T09:14:51.289Z,29.63
2022-12-06T09:17:20.812Z,29.33
2022-12-06T09:19:49.140Z,28.70
2022-12-06T09:22:19.430Z,29.67
2022-12-06T09:24:47.535Z,29.43
2022-12-06T09:27:15.647Z,30.17
2022-12-06T09:29:44.181Z,29.23
2022-12-06T09:32:12.349Z,29.70
2022-12-06T09:34:41.990Z,30.60
2022-12-06T09:37:13.421Z,32.27
2022-12-06T09:39:45.473Z,30.80
2022-12-06T09:42:39.202Z,29.90
2022-12-06T09:45:25.831Z,30.27
2022-12-06T09:48:17.301Z,29.27
2022-12-06T09:50:54.733Z,28.23
2022-12-06T09:53:35.470Z,30.37
2022-12-06T09:56:14.221Z,29.23
2022-12-06T09:58:57.292Z,29.97
2022-12-06T10:04:54.261Z,29.70
2022-12-06T10:07:29.981Z,30.10
2022-12-06T10:10:11.614Z,29.53
2022-12-06T10:12:52.959Z,28.57
2022-12-06T10:15:28.928Z,29.83
2022-12-06T10:18:07.798Z,30.27
2022-12-06T10:20:43.017Z,29.83
2022-12-06T10:23:26.664Z,29.53
2022-12-06T10:26:01.241Z,28.77
2022-12-06T10:28:43.947Z,29.40
2022-12-06T10:31:23.023Z,30.70
2022-12-06T10:33:59.090Z,30.77
2022-12-06T10:36:43.630Z,29.13
2022-12-06T10:39:22.740Z,30.50
2022-12-06T10:41:56.907Z,30.70
2022-12-06T10:44:33.132Z,32.00
2022-12-06T10:47:05.404Z,30.23
2022-12-06T10:49:42.930Z,31.53
2022-12-06T10:52:23.847Z,29.20
2022-12-06T10:55:00.649Z,30.70
2022-12-06T10:57:35.070Z,30.77
2022-12-06T11:00:11.794Z,28.80
2022-12-06T11:02:49.687Z,28.87
2022-12-06T11:05:22.883Z,28.97
2022-12-06T11:07:58.135Z,28.77
2022-12-06T11:10:31.365Z,25.77
2022-12-06T11:13:04.612Z,24.13
2022-12-06T11:15:36.658Z,25.30
2022-12-06T11:18:11.305Z,26.37
2022-12-06T11:20:43.548Z,28.07
2022-12-06T11:23:20.636Z,27.20
2022-12-06T11:26:05.854Z,25.93
2022-12-06T11:28:41.935Z,26.47
2022-12-06T11:31:27.867Z,24.30
2022-12-06T11:33:57.143Z,27.53
2022-12-06T11:36:27.140Z,23.87
2022-12-06T11:38:56.781Z,26.13
2022-12-06T11:41:29.188Z,23.60
2022-12-06T11:43:59.127Z,22.40
2022-12-06T11:46:28.142Z,21.53
2022-12-06T11:49:05.936Z,22.50
2022-12-06T11:51:34.221Z,19.27
2022-12-06T11:54:05.485Z,20.57
2022-12-06T11:56:40.331Z,23.00
2022-12-06T11:59:25.116Z,16.67
2022-12-06T12:01:56.858Z,18.07
2022-12-06T12:04:40.922Z,18.03
2022-12-06T12:07:17.274Z,19.98
2022-12-06T12:09:51.965Z,23.23
2022-12-06T12:12:23.994Z,21.00
2022-12-06T12:14:58.349Z,19.80
2022-12-06T12:17:38.983Z,17.83
2022-12-06T12:20:15.310Z,18.88
2022-12-06T12:22:44.040Z,17.90
2022-12-06T12:25:25.787Z,18.60
2022-12-06T12:27:57.088Z,18.75
2022-12-06T12:30:28.918Z,19.90
2022-12-06T12:33:27.618Z,23.00
2022-12-06T12:36:11.044Z,20.98
2022-12-06T12:38:44.704Z,23.80
2022-12-06T12:41:28.997Z,25.15
2022-12-06T12:44:35.876Z,25.23
2022-12-06T12:46:58.208Z,26.67
2022-12-06T12:49:29.686Z,27.17
2022-12-06T12:51:58.626Z,27.40
2022-12-06T12:54:32.164Z,28.40
2022-12-06T12:57:02.564Z,29.10
2022-12-06T12:59:41.571Z,28.98
2022-12-06T13:02:20.753Z,28.63
2022-12-06T13:05:05.063Z,27.73
2022-12-06T13:07:42.387Z,29.58
2022-12-06T13:10:20.027Z,30.58
2022-12-06T13:12:52.536Z,31.23
2022-12-06T13:15:27.511Z,30.53
2022-12-06T13:18:00.122Z,32.67
2022-12-06T13:20:30.357Z,32.50
2022-12-06T13:23:03.964Z,31.52
2022-12-06T13:25:35.594Z,31.75
2022-12-06T13:28:07.344Z,31.20
2022-12-06T13:30:43.245Z,31.95
2022-12-06T13:33:21.212Z,31.85
2022-12-06T13:35:56.964Z,31.17
2022-12-06T13:38:38.289Z,32.50
2022-12-06T13:41:07.497Z,32.17
2022-12-06T13:43:59.625Z,32.15
2022-12-06T13:46:34.356Z,32.50
2022-12-06T13:49:19.084Z,32.08
2022-12-06T13:51:48.886Z,30.90
2022-12-06T13:54:41.083Z,30.50
2022-12-06T13:57:29.849Z,31.92
2022-12-06T13:59:58.795Z,31.37
2022-12-06T14:02:53.050Z,30.40
2022-12-06T14:06:15.205Z,32.50
2022-12-06T14:08:46.527Z,32.30
2022-12-06T14:11:26.916Z,32.03
2022-12-06T14:14:04.110Z,32.67
2022-12-06T14:16:36.811Z,32.27
2022-12-06T14:19:16.539Z,32.95
2022-12-06T14:21:52.894Z,31.83
2022-12-06T14:24:34.109Z,32.60
2022-12-06T14:27:08.163Z,31.93
2022-12-06T14:29:36.309Z,31.55
2022-12-06T14:32:04.611Z,31.83
2022-12-06T14:34:36.608Z,30.65
2022-12-06T14:37:14.537Z,31.25
2022-12-06T14:39:51.519Z,31.40
2022-12-06T14:42:38.511Z,31.07
2022-12-06T14:45:12.780Z,31.60
2022-12-06T14:47:41.134Z,31.30
2022-12-06T14:50:24.852Z,30.80
2022-12-06T14:53:01.450Z,31.08
2022-12-06T14:55:31.205Z,32.13
2022-12-06T14:58:01.169Z,31.70
2022-12-06T15:00:36.121Z,31.70
2022-12-06T15:03:24.223Z,32.17
2022-12-06T15:06:12.088Z,32.55
2022-12-06T15:08:41.573Z,32.93
2022-12-06T15:11:59.759Z,31.08
2022-12-06T15:14:30.895Z,31.33
2022-12-06T15:17:02.886Z,30.27
2022-12-06T15:19:33.379Z,30.92
2022-12-06T15:22:04.484Z,30.95
2022-12-06T15:24:33.284Z,31.45
2022-12-06T15:27:02.801Z,31.77
2022-12-06T15:29:31.115Z,30.67
2022-12-06T15:31:59.567Z,31.38
2022-12-06T15:34:29.843Z,31.10
2022-12-06T15:37:30.163Z,31.70
2022-12-06T15:39:49.171Z,31.40
2022-12-06T15:42:22.755Z,30.63
2022-12-06T15:44:56.264Z,30.27
2022-12-06T15:47:24.818Z,29.65
2022-12-06T15:49:54.021Z,29.70
2022-12-06T15:52:24.423Z,30.05
2022-12-06T15:54:55.437Z,30.23
2022-12-06T15:57:23.638Z,31.50
2022-12-06T15:59:53.860Z,31.73
2022-12-06T16:02:22.711Z,30.63
2022-12-06T16:04:52.790Z,30.63
2022-12-06T16:07:21.151Z,30.20
2022-12-06T16:09:49.389Z,30.23
2022-12-06T16:12:20.861Z,29.43
2022-12-06T16:14:49.007Z,30.17
2022-12-06T16:17:17.050Z,30.40
2022-12-06T16:20:05.607Z,30.63
2022-12-06T16:22:50.881Z,30.00
2022-12-06T16:25:19.017Z,29.33
2022-12-06T16:27:49.317Z,28.33
2022-12-06T16:30:18.250Z,28.80
2022-12-06T16:32:46.454Z,29.10
2022-12-06T16:35:14.599Z,28.80
2022-12-06T16:37:42.775Z,29.52
2022-12-06T16:40:20.033Z,28.85
2022-12-06T16:42:49.795Z,27.77
2022-12-06T16:45:19.005Z,27.23
2022-12-06T16:47:47.631Z,28.35
2022-12-06T16:50:22.848Z,28.55
2022-12-06T16:52:52.469Z,28.67
2022-12-06T16:55:20.952Z,28.10
2022-12-06T16:57:50.716Z,27.50
2022-12-06T17:00:19.764Z,28.17
2022-12-06T17:02:48.793Z,28.38
2022-12-06T17:05:20.758Z,29.00
2022-12-06T17:07:49.268Z,28.65
2022-12-06T17:10:18.558Z,29.00
2022-12-06T17:12:48.722Z,28.70
2022-12-06T17:15:20.966Z,27.88
2022-12-06T17:17:50.668Z,28.80
2022-12-06T17:20:20.271Z,27.23
2022-12-06T17:22:48.606Z,27.53
2022-12-06T17:25:18.195Z,28.70
2022-12-06T17:27:46.488Z,27.00
2022-12-06T17:30:18.136Z,28.77
2022-12-06T17:32:48.016Z,31.03
2022-12-06T17:35:18.918Z,30.90
2022-12-06T17:37:52.436Z,30.27
2022-12-06T17:40:20.719Z,29.87
2022-12-06T17:42:59.794Z,30.57
2022-12-06T17:45:29.860Z,29.67
2022-12-06T17:47:58.418Z,29.90
2022-12-06T17:50:26.819Z,29.67
2022-12-06T17:52:55.402Z,30.07
2022-12-06T17:58:09.043Z,31.17
2022-12-06T18:00:46.699Z,27.97
2022-12-06T18:03:14.905Z,29.03
2022-12-06T18:05:44.920Z,28.80
2022-12-06T18:08:13.278Z,28.37
2022-12-06T18:10:41.712Z,29.37
2022-12-06T18:13:10.418Z,29.47
2022-12-06T18:15:42.096Z,29.43
2022-12-06T18:18:10.357Z,28.17
2022-12-06T18:20:38.845Z,28.40
2022-12-06T18:23:07.343Z,28.50
2022-12-06T18:25:38.944Z,28.67
2022-12-06T18:28:14.776Z,28.53
2022-12-06T18:30:44.448Z,28.73
2022-12-06T18:33:17.562Z,27.57
2022-12-06T18:35:47.632Z,26.70
2022-12-06T18:38:16.063Z,28.13
2022-12-06T18:40:44.455Z,28.27
2022-12-06T18:43:13.614Z,28.77
2022-12-06T18:45:43.663Z,29.80
2022-12-06T18:48:15.067Z,31.87
2022-12-06T18:50:43.663Z,33.00
2022-12-06T18:53:15.621Z,30.97
2022-12-06T18:55:44.203Z,31.27
2022-12-06T18:58:13.076Z,31.13
2022-12-06T19:00:46.092Z,29.10
2022-12-06T19:03:16.636Z,28.60
2022-12-06T19:06:11.168Z,28.27
2022-12-06T19:08:45.823Z,27.83
2022-12-06T19:11:19.121Z,28.43
2022-12-06T19:13:52.828Z,28.53
2022-12-06T19:16:23.139Z,28.20
2022-12-06T19:18:53.829Z,27.67
2022-12-06T19:21:22.096Z,27.07
2022-12-06T19:23:50.897Z,27.77
2022-12-06T19:26:19.392Z,28.17
2022-12-06T19:28:48.003Z,28.33
2022-12-06T19:31:16.967Z,28.43
2022-12-06T19:33:48.196Z,28.50
2022-12-06T19:36:23.722Z,28.80
2022-12-06T19:39:01.557Z,28.83
2022-12-06T19:42:01.238Z,28.03
2022-12-06T19:44:29.931Z,28.47
2022-12-06T19:47:12.455Z,27.67
2022-12-06T19:49:54.300Z,28.23
2022-12-06T19:52:30.994Z,28.27
2022-12-06T19:55:03.159Z,28.10
2022-12-06T19:57:32.723Z,29.67
2022-12-06T20:00:05.524Z,27.93
2022-12-06T20:06:06.747Z,28.60
2022-12-06T20:08:59.942Z,29.70
2022-12-06T20:11:56.925Z,27.37
2022-12-06T20:14:38.340Z,27.77
2022-12-06T20:17:17.554Z,27.50
2022-12-06T20:19:48.608Z,27.13
2022-12-06T20:22:18.784Z,28.37
2022-12-06T20:24:55.399Z,27.67
2022-12-06T20:27:45.615Z,27.60
2022-12-06T20:30:15.975Z,27.60
2022-12-06T20:32:44.855Z,29.30
2022-12-06T20:35:13.669Z,27.53
2022-12-06T20:37:42.702Z,27.50
2022-12-06T20:40:14.323Z,27.30
2022-12-06T20:42:43.019Z,28.70
2022-12-06T20:45:11.740Z,27.83
2022-12-06T20:47:40.245Z,28.67
2022-12-06T20:50:09.817Z,29.03
2022-12-06T20:52:40.424Z,29.80
2022-12-06T20:55:10.526Z,29.73
2022-12-06T20:57:40.648Z,28.93
2022-12-06T21:00:11.787Z,29.27
2022-12-06T21:02:40.363Z,28.63
2022-12-06T21:05:09.527Z,28.40
2022-12-06T21:07:38.663Z,30.03
2022-12-06T21:10:19.399Z,28.77
2022-12-06T21:12:50.456Z,29.53
2022-12-06T21:15:19.054Z,29.20
2022-12-06T21:17:47.549Z,29.23
2022-12-06T21:20:15.915Z,30.10
2022-12-06T21:22:45.629Z,29.63
2022-12-06T21:25:17.852Z,29.27
2022-12-06T21:27:47.175Z,28.80
2022-12-06T21:30:21.669Z,28.80
2022-12-06T21:33:05.400Z,30.77
2022-12-06T21:35:36.459Z,30.47
2022-12-06T21:38:05.222Z,30.73
2022-12-06T21:40:33.388Z,30.07
2022-12-06T21:43:02.379Z,29.43
2022-12-06T21:45:38.328Z,28.50
2022-12-06T21:48:09.485Z,30.00
2022-12-06T21:50:38.853Z,29.30
2022-12-06T21:53:08.450Z,28.93
2022-12-06T21:55:41.169Z,30.33
2022-12-06T21:58:12.587Z,29.33
2022-12-06T22:00:52.102Z,30.17
2022-12-06T22:03:25.062Z,29.03
2022-12-06T22:05:58.447Z,29.73
2022-12-06T22:08:32.874Z,29.67
2022-12-06T22:11:06.199Z,28.20
2022-12-06T22:13:42.127Z,29.33
2022-12-06T22:16:22.659Z,28.90
2022-12-06T22:18:52.188Z,28.30
2022-12-06T22:21:26.717Z,28.50
2022-12-06T22:23:59.886Z,28.60
2022-12-06T22:26:38.432Z,28.77
2022-12-06T22:29:11.029Z,27.43
2022-12-06T22:31:48.002Z,28.07
2022-12-06T22:34:27.300Z,29.23
2022-12-06T22:37:00.700Z,28.47
2022-12-06T22:39:31.503Z,29.93
2022-12-06T22:42:00.536Z,28.77
2022-12-06T22:44:30.097Z,28.63
2022-12-06T22:47:01.470Z,28.40
2022-12-06T22:49:30.434Z,28.40
2022-12-06T22:52:00.368Z,28.00
2022-12-06T22:54:29.305Z,28.63
2022-12-06T22:57:02.156Z,27.63
2022-12-06T22:59:30.398Z,29.03
2022-12-06T23:02:00.339Z,28.63
2022-12-06T23:04:28.682Z,27.53
2022-12-06T23:06:59.847Z,26.57
2022-12-06T23:09:28.920Z,28.70
2022-12-06T23:11:59.111Z,28.83
2022-12-06T23:14:27.639Z,29.83
2022-12-06T23:16:58.985Z,29.13
2022-12-06T23:19:29.657Z,28.77
2022-12-06T23:21:58.528Z,28.67
2022-12-06T23:24:30.306Z,27.60
2022-12-06T23:26:58.998Z,27.97
2022-12-06T23:29:28.295Z,28.00
2022-12-06T23:31:58.684Z,29.00
2022-12-06T23:34:40.277Z,28.93
2022-12-06T23:37:12.527Z,28.77
2022-12-06T23:39:46.222Z,27.67
2022-12-06T23:42:18.246Z,27.97
2022-12-06T23:44:48.882Z,28.30
2022-12-06T23:47:19.676Z,27.57
2022-12-06T23:49:51.248Z,28.27
2022-12-06T23:55:39.175Z,25.53
2022-12-06T23:58:07.866Z,24.90
